KMRY

Monterey Regional Airport

Monterey, California, USA
METAR KMRY 220454Z AUTO 20006KT 10SM CLR 13/11 A3000 RMK AO2 SLP171 T01330106
Observed Flight Rules
Jun-22 @ 04:54 UTC (35 minutes ago) Visual Flight Rules
Wind Visibility Clouds
200° at 6 knots 10 miles
  • Clear skies
Temperatures Readings
Current 13°C / 55°F
Dewpoint 11°C / 52°F
Humidity 88%
Altimeter 30" Hg
Pressure 1017.1 hPa
Elevation 66
METAR KMRY 220454Z AUTO 20006KT 10SM CLR 13/11 A3000 RMK AO2 SLP171 T01330106
Observed Flight Rules
Jun-22 @ 04:54 UTC
(35 minutes ago)
VFR
Wind Visibility
200° at 6 knots 10 miles
Clouds
  • Clear skies
Temperature Dewpoint
13°C / 55°F 11°C / 52°F
Humidity Altimeter Pressure
88% 30" Hg 1017.1 hPa